createdAt,value
2022-09-15T00:00:50.355Z,71.26
2022-09-15T00:03:43.301Z,71.31
2022-09-15T00:06:15.733Z,71.38
2022-09-15T00:08:47.608Z,71.37
2022-09-15T00:11:23.297Z,71.54
2022-09-15T00:13:56.453Z,71.71
2022-09-15T00:16:30.990Z,71.59
2022-09-15T00:19:04.240Z,71.83
2022-09-15T00:21:40.841Z,71.79
2022-09-15T00:24:12.833Z,71.90
2022-09-15T00:26:44.630Z,71.89
2022-09-15T00:29:16.621Z,71.99
2022-09-15T00:31:48.555Z,72.11
2022-09-15T00:34:20.334Z,72.20
2022-09-15T00:36:52.126Z,72.22
2022-09-15T00:39:24.073Z,72.37
2022-09-15T00:41:55.910Z,72.51
2022-09-15T00:44:50.904Z,72.54
2022-09-15T00:47:24.825Z,72.45
2022-09-15T00:50:00.159Z,72.44
2022-09-15T00:52:37.299Z,72.46
2022-09-15T00:55:13.935Z,72.42
2022-09-15T00:57:54.831Z,72.39
2022-09-15T01:00:29.232Z,72.41
2022-09-15T01:03:01.886Z,72.32
2022-09-15T01:05:38.063Z,72.43
2022-09-15T01:08:15.195Z,72.47
2022-09-15T01:10:47.035Z,72.47
2022-09-15T01:13:18.805Z,72.73
2022-09-15T01:16:02.535Z,72.63
2022-09-15T01:18:45.412Z,72.81
2022-09-15T01:21:32.230Z,72.81
2022-09-15T01:24:47.011Z,72.85
2022-09-15T01:27:52.394Z,72.95
2022-09-15T01:30:25.082Z,73.09
2022-09-15T01:33:09.825Z,73.19
2022-09-15T01:35:50.755Z,73.25
2022-09-15T01:38:32.098Z,73.33
2022-09-15T01:41:10.409Z,73.40
2022-09-15T01:43:49.128Z,73.49
2022-09-15T01:46:25.053Z,73.60
2022-09-15T01:49:00.819Z,73.45
2022-09-15T01:51:34.441Z,73.52
2022-09-15T01:54:08.986Z,73.68
2022-09-15T01:56:42.032Z,73.65
2022-09-15T01:59:13.929Z,73.85
2022-09-15T02:01:51.952Z,73.91
2022-09-15T02:04:29.735Z,73.99
2022-09-15T02:07:11.758Z,73.99
2022-09-15T02:09:52.196Z,74.11
2022-09-15T02:12:34.563Z,74.19
2022-09-15T02:15:11.889Z,74.33
2022-09-15T02:17:47.649Z,74.28
2022-09-15T02:20:28.722Z,74.38
2022-09-15T02:23:08.941Z,74.56
2022-09-15T02:25:45.614Z,74.62
2022-09-15T02:28:20.199Z,74.77
2022-09-15T02:30:55.250Z,74.84
2022-09-15T02:33:32.826Z,74.94
2022-09-15T02:36:05.835Z,74.97
2022-09-15T02:38:43.469Z,75.20
2022-09-15T02:41:15.457Z,75.28
2022-09-15T02:43:50.372Z,75.39
2022-09-15T02:46:24.585Z,75.42
2022-09-15T02:48:56.977Z,75.57
2022-09-15T02:51:29.447Z,75.70
2022-09-15T02:54:01.413Z,75.75
2022-09-15T02:56:33.468Z,75.79
2022-09-15T02:59:05.314Z,75.75
2022-09-15T03:01:39.168Z,75.96
2022-09-15T03:04:11.135Z,76.01
2022-09-15T03:06:43.642Z,76.01
2022-09-15T03:09:15.906Z,76.09
2022-09-15T03:11:47.733Z,76.25
2022-09-15T03:14:19.625Z,76.31
2022-09-15T03:16:51.464Z,76.32
2022-09-15T03:19:23.404Z,76.43
2022-09-15T03:21:55.219Z,76.63
2022-09-15T03:24:27.192Z,76.84
2022-09-15T03:26:59.048Z,76.83
2022-09-15T03:29:31.534Z,76.98
2022-09-15T03:32:04.052Z,76.97
2022-09-15T03:34:35.888Z,76.97
2022-09-15T03:37:08.671Z,77.16
2022-09-15T03:39:40.713Z,77.13
2022-09-15T03:42:12.519Z,77.28
2022-09-15T03:44:44.364Z,77.26
2022-09-15T03:47:16.278Z,77.34
2022-09-15T03:49:48.193Z,77.36
2022-09-15T03:52:19.969Z,77.45
2022-09-15T03:54:52.181Z,77.61
2022-09-15T03:57:23.996Z,77.53
2022-09-15T03:59:55.899Z,77.67
2022-09-15T04:02:28.029Z,77.70
2022-09-15T04:04:59.914Z,77.70
2022-09-15T04:07:31.907Z,77.70
2022-09-15T04:10:04.785Z,77.87
2022-09-15T04:12:36.774Z,77.82
2022-09-15T04:15:11.840Z,77.98
2022-09-15T04:17:43.806Z,77.85
2022-09-15T04:20:17.262Z,77.76
2022-09-15T04:22:49.052Z,77.90
2022-09-15T04:25:20.967Z,77.80
2022-09-15T04:27:52.908Z,77.81
2022-09-15T04:30:25.376Z,77.73
2022-09-15T04:32:57.183Z,77.55
2022-09-15T04:35:29.376Z,77.44
2022-09-15T04:38:01.284Z,77.30
2022-09-15T04:40:33.913Z,77.43
2022-09-15T04:43:06.894Z,77.39
2022-09-15T04:45:38.704Z,77.37
2022-09-15T04:48:10.596Z,77.30
2022-09-15T04:50:42.708Z,77.35
2022-09-15T04:53:14.653Z,77.41
2022-09-15T04:55:46.567Z,77.30
2022-09-15T04:58:18.332Z,77.08
2022-09-15T05:00:50.690Z,76.91
2022-09-15T05:03:22.518Z,77.05
2022-09-15T05:05:54.627Z,76.83
2022-09-15T05:08:26.432Z,76.95
2022-09-15T05:11:03.810Z,76.94
2022-09-15T05:13:36.949Z,77.05
2022-09-15T05:16:12.063Z,77.05
2022-09-15T05:18:45.911Z,77.30
2022-09-15T05:21:20.818Z,77.18
2022-09-15T05:23:53.247Z,76.88
2022-09-15T05:26:27.146Z,76.89
2022-09-15T05:28:59.617Z,76.80
2022-09-15T05:31:34.030Z,76.86
2022-09-15T05:34:07.398Z,76.67
2022-09-15T05:36:39.344Z,76.61
2022-09-15T05:39:11.188Z,76.28
2022-09-15T05:41:43.168Z,76.23
2022-09-15T05:44:14.986Z,76.25
2022-09-15T05:46:47.118Z,76.05
2022-09-15T05:49:19.154Z,75.88
2022-09-15T05:51:51.239Z,75.68
2022-09-15T05:54:23.155Z,75.47
2022-09-15T05:56:54.956Z,75.40
2022-09-15T05:59:27.057Z,75.24
2022-09-15T06:01:59.297Z,74.98
2022-09-15T06:04:31.328Z,74.70
2022-09-15T06:07:03.162Z,74.66
2022-09-15T06:09:35.209Z,74.30
2022-09-15T06:12:07.613Z,73.98
2022-09-15T06:14:39.747Z,73.87
2022-09-15T06:17:11.935Z,73.61
2022-09-15T06:19:43.849Z,73.45
2022-09-15T06:22:15.861Z,73.34
2022-09-15T06:24:47.713Z,73.06
2022-09-15T06:27:20.642Z,72.88
2022-09-15T06:29:53.432Z,72.62
2022-09-15T06:32:25.304Z,72.29
2022-09-15T06:34:57.230Z,72.06
2022-09-15T06:37:29.091Z,71.67
2022-09-15T06:40:00.988Z,71.47
2022-09-15T06:42:32.969Z,70.95
2022-09-15T06:45:05.280Z,70.48
2022-09-15T06:47:37.437Z,70.02
2022-09-15T06:50:11.850Z,69.85
2022-09-15T06:52:45.345Z,68.89
2022-09-15T06:55:17.734Z,68.17
2022-09-15T06:57:50.795Z,68.00
2022-09-15T07:00:22.969Z,67.39
2022-09-15T07:02:55.262Z,67.11
2022-09-15T07:05:27.501Z,66.79
2022-09-15T07:07:59.662Z,67.02
2022-09-15T07:10:31.452Z,67.11
2022-09-15T07:13:03.347Z,66.36
2022-09-15T07:15:35.376Z,65.44
2022-09-15T07:18:07.886Z,64.18
2022-09-15T07:20:42.036Z,62.84
2022-09-15T07:23:14.013Z,61.48
2022-09-15T07:25:48.284Z,60.53
2022-09-15T07:28:20.339Z,59.61
2022-09-15T07:30:54.466Z,59.20
2022-09-15T07:33:26.430Z,57.97
2022-09-15T07:35:58.515Z,57.19
2022-09-15T07:38:30.390Z,56.53
2022-09-15T07:41:08.148Z,55.40
2022-09-15T07:43:56.970Z,55.43
2022-09-15T07:46:33.197Z,54.80
2022-09-15T07:49:06.949Z,54.42
2022-09-15T07:51:38.778Z,53.81
2022-09-15T07:54:10.608Z,52.77
2022-09-15T07:56:42.506Z,51.30
2022-09-15T07:59:14.587Z,49.32
2022-09-15T08:01:46.829Z,47.82
2022-09-15T08:04:18.813Z,46.57
2022-09-15T08:06:52.131Z,45.68
2022-09-15T08:09:24.150Z,45.06
2022-09-15T08:11:56.000Z,44.39
2022-09-15T08:14:28.087Z,43.75
2022-09-15T08:17:03.007Z,43.53
2022-09-15T08:19:36.206Z,43.63
2022-09-15T08:22:08.079Z,42.33
2022-09-15T08:24:40.579Z,40.43
2022-09-15T08:27:12.480Z,39.77
2022-09-15T08:29:44.564Z,38.34
2022-09-15T08:32:16.613Z,37.86
2022-09-15T08:34:48.585Z,36.69
2022-09-15T08:37:20.590Z,36.81
2022-09-15T08:39:52.864Z,36.77
2022-09-15T08:42:26.954Z,36.22
2022-09-15T08:45:04.230Z,35.45
2022-09-15T08:47:41.961Z,34.37
2022-09-15T08:50:24.067Z,33.97
2022-09-15T08:52:59.866Z,33.88
2022-09-15T08:55:39.849Z,33.84
2022-09-15T08:58:18.063Z,33.56
2022-09-15T09:00:52.980Z,32.54
2022-09-15T09:03:48.860Z,32.49
2022-09-15T09:06:33.477Z,32.60
2022-09-15T09:09:20.752Z,32.33
2022-09-15T09:12:20.602Z,32.03
2022-09-15T09:15:09.675Z,32.35
2022-09-15T09:17:55.944Z,32.46
2022-09-15T09:20:44.416Z,32.74
2022-09-15T09:23:19.589Z,32.30
2022-09-15T09:25:52.691Z,32.28
2022-09-15T09:28:32.586Z,32.07
2022-09-15T09:31:08.159Z,31.62
2022-09-15T09:33:47.957Z,31.56
2022-09-15T09:36:20.850Z,31.41
2022-09-15T09:38:53.035Z,32.25
2022-09-15T09:41:35.674Z,32.08
2022-09-15T09:44:12.132Z,31.85
2022-09-15T09:46:44.414Z,31.39
2022-09-15T09:49:22.978Z,31.05
2022-09-15T09:51:56.131Z,30.98
2022-09-15T09:54:28.771Z,30.97
2022-09-15T09:57:24.319Z,31.03
2022-09-15T09:59:56.968Z,31.67
2022-09-15T10:02:29.860Z,32.17
2022-09-15T10:05:21.466Z,31.48
2022-09-15T10:07:53.374Z,31.42
2022-09-15T10:10:32.436Z,31.93
2022-09-15T10:13:05.395Z,32.27
2022-09-15T10:15:43.573Z,32.57
2022-09-15T10:18:32.246Z,32.19
2022-09-15T10:21:06.783Z,32.80
2022-09-15T10:23:39.101Z,32.95
2022-09-15T10:26:32.230Z,33.66
2022-09-15T10:29:16.396Z,34.48
2022-09-15T10:31:49.214Z,35.04
2022-09-15T10:34:32.693Z,35.41
2022-09-15T10:37:15.581Z,35.40
2022-09-15T10:39:54.942Z,35.47
2022-09-15T10:42:50.037Z,35.78
2022-09-15T10:45:31.701Z,36.23
2022-09-15T10:48:27.815Z,36.59
2022-09-15T10:51:06.371Z,37.00
2022-09-15T10:53:57.457Z,37.46
2022-09-15T10:56:35.016Z,38.08
2022-09-15T10:59:21.808Z,38.99
2022-09-15T11:02:13.274Z,39.34
2022-09-15T11:04:57.311Z,39.65
2022-09-15T11:07:40.301Z,39.54
2022-09-15T11:10:20.866Z,40.10
2022-09-15T11:13:02.255Z,40.58
2022-09-15T11:15:49.662Z,41.28
2022-09-15T11:18:56.311Z,41.71
2022-09-15T11:21:37.458Z,42.38
2022-09-15T11:24:29.287Z,42.43
2022-09-15T11:27:08.167Z,42.70
2022-09-15T11:29:53.591Z,42.74
2022-09-15T11:32:30.961Z,42.63
2022-09-15T11:35:09.259Z,42.98
2022-09-15T11:37:47.020Z,43.05
2022-09-15T11:40:26.315Z,43.19
2022-09-15T11:43:01.687Z,43.70
2022-09-15T11:45:39.336Z,43.73
2022-09-15T11:48:16.822Z,43.79
2022-09-15T11:50:53.441Z,43.83
2022-09-15T11:53:34.815Z,44.10
2022-09-15T11:56:16.052Z,43.96
2022-09-15T11:59:01.347Z,44.23
2022-09-15T12:01:39.711Z,44.42
2022-09-15T12:04:18.675Z,44.61
2022-09-15T12:06:56.240Z,44.79
2022-09-15T12:09:29.258Z,45.32
2022-09-15T12:12:06.874Z,45.53
2022-09-15T12:14:43.280Z,46.05
2022-09-15T12:17:22.571Z,46.18
2022-09-15T12:20:01.600Z,46.14
2022-09-15T12:22:42.520Z,46.32
2022-09-15T12:25:20.917Z,46.31
2022-09-15T12:28:23.396Z,46.53
2022-09-15T12:31:16.063Z,46.39
2022-09-15T12:33:54.712Z,45.95
2022-09-15T12:36:51.289Z,46.32
2022-09-15T12:39:38.023Z,46.47
2022-09-15T12:42:15.227Z,46.53
2022-09-15T12:44:49.528Z,46.76
2022-09-15T12:47:29.494Z,47.12
2022-09-15T12:50:06.745Z,47.37
2022-09-15T12:52:48.446Z,47.69
2022-09-15T12:55:25.139Z,47.97
2022-09-15T12:58:00.266Z,47.90
2022-09-15T13:00:45.578Z,47.99
2022-09-15T13:03:53.979Z,48.09
2022-09-15T13:06:28.090Z,48.27
2022-09-15T13:09:26.908Z,48.18
2022-09-15T13:11:59.574Z,48.31
2022-09-15T13:14:39.303Z,47.96
2022-09-15T13:17:18.403Z,47.96
2022-09-15T13:19:54.829Z,48.13
2022-09-15T13:22:30.344Z,47.91
2022-09-15T13:25:15.835Z,48.18
2022-09-15T13:27:50.445Z,48.29
2022-09-15T13:30:43.084Z,48.31
2022-09-15T13:39:44.861Z,48.85
2022-09-15T13:42:39.934Z,48.78
2022-09-15T13:45:44.115Z,48.57
2022-09-15T13:48:33.653Z,48.63
2022-09-15T13:51:16.685Z,48.64
2022-09-15T13:53:52.884Z,48.83
2022-09-15T13:56:30.103Z,48.98
2022-09-15T13:59:11.745Z,49.10
2022-09-15T14:01:46.145Z,49.19
2022-09-15T14:04:21.933Z,49.61
2022-09-15T14:07:00.057Z,49.61
2022-09-15T14:09:37.530Z,49.90
2022-09-15T14:12:15.016Z,49.98
2022-09-15T14:14:52.332Z,50.02
2022-09-15T14:17:26.189Z,49.99
2022-09-15T14:20:00.634Z,50.14
2022-09-15T14:22:34.649Z,49.99
2022-09-15T14:25:16.643Z,50.03
2022-09-15T14:27:50.876Z,50.07
2022-09-15T14:30:26.488Z,49.88
2022-09-15T14:33:01.768Z,50.06
2022-09-15T14:35:38.605Z,50.30
2022-09-15T14:38:20.492Z,50.27
2022-09-15T14:40:56.894Z,50.25
2022-09-15T14:43:32.904Z,50.50
2022-09-15T14:46:14.843Z,50.47
2022-09-15T14:48:46.912Z,50.17
2022-09-15T14:51:23.552Z,50.29
2022-09-15T14:53:59.994Z,50.42
2022-09-15T14:56:36.636Z,50.26
2022-09-15T14:59:12.989Z,50.10
2022-09-15T15:01:52.028Z,50.21
2022-09-15T15:04:29.722Z,50.08
2022-09-15T15:07:07.914Z,50.16
2022-09-15T15:09:47.070Z,50.05
2022-09-15T15:12:25.789Z,50.19
2022-09-15T15:15:00.097Z,50.52
2022-09-15T15:17:37.811Z,50.53
2022-09-15T15:20:23.211Z,50.94
2022-09-15T15:23:18.078Z,50.94
2022-09-15T15:25:50.620Z,51.30
2022-09-15T15:28:34.906Z,51.32
2022-09-15T15:31:25.897Z,51.29
2022-09-15T15:34:00.266Z,51.46
2022-09-15T15:36:34.030Z,51.62
2022-09-15T15:39:08.006Z,51.96
2022-09-15T15:41:43.255Z,52.23
2022-09-15T15:44:29.067Z,52.46
2022-09-15T15:47:03.363Z,52.59
2022-09-15T15:49:39.287Z,52.74
2022-09-15T15:52:23.297Z,52.86
2022-09-15T15:54:55.163Z,53.13
2022-09-15T15:57:32.985Z,53.37
2022-09-15T16:00:12.057Z,53.36
2022-09-15T16:02:43.921Z,53.46
2022-09-15T16:05:16.505Z,53.30
2022-09-15T16:07:50.736Z,53.22
2022-09-15T16:10:25.689Z,53.33
2022-09-15T16:12:57.550Z,53.33
2022-09-15T16:15:29.764Z,53.48
2022-09-15T16:18:02.008Z,53.67
2022-09-15T16:20:34.037Z,53.66
2022-09-15T16:23:06.407Z,53.76
2022-09-15T16:25:48.089Z,54.01
2022-09-15T16:28:20.616Z,54.30
2022-09-15T16:30:52.469Z,54.43
2022-09-15T16:33:25.051Z,54.85
2022-09-15T16:36:03.913Z,54.94
2022-09-15T16:38:36.990Z,55.28
2022-09-15T16:41:16.468Z,55.45
2022-09-15T16:43:49.244Z,55.60
2022-09-15T16:46:21.754Z,55.81
2022-09-15T16:48:53.869Z,56.09
2022-09-15T16:51:30.981Z,56.14
2022-09-15T16:54:03.962Z,56.37
2022-09-15T16:56:35.798Z,56.62
2022-09-15T16:59:07.617Z,56.74
2022-09-15T17:01:39.838Z,56.91
2022-09-15T17:04:16.620Z,57.05
2022-09-15T17:06:48.468Z,57.32
2022-09-15T17:09:22.891Z,57.36
2022-09-15T17:11:56.779Z,57.58
2022-09-15T17:14:28.621Z,57.64
2022-09-15T17:17:00.724Z,57.86
2022-09-15T17:19:32.885Z,58.05
2022-09-15T17:22:04.836Z,58.13
2022-09-15T17:24:36.658Z,58.32
2022-09-15T17:27:08.584Z,58.43
2022-09-15T17:29:40.500Z,58.55
2022-09-15T17:32:12.688Z,58.71
2022-09-15T17:34:46.390Z,58.87
2022-09-15T17:37:18.217Z,58.98
2022-09-15T17:39:50.587Z,59.10
2022-09-15T17:42:22.645Z,59.25
2022-09-15T17:44:54.475Z,59.36
2022-09-15T17:47:26.339Z,59.63
2022-09-15T17:49:58.636Z,59.56
2022-09-15T17:52:31.539Z,59.81
2022-09-15T17:55:03.351Z,60.01
2022-09-15T17:57:35.633Z,60.08
2022-09-15T18:00:09.846Z,60.27
2022-09-15T18:02:43.441Z,60.44
2022-09-15T18:05:27.536Z,60.56
2022-09-15T18:08:02.515Z,60.72
2022-09-15T18:10:36.178Z,60.99
2022-09-15T18:13:08.381Z,61.16
2022-09-15T18:15:40.367Z,61.35
2022-09-15T18:18:17.024Z,61.64
2022-09-15T18:20:50.987Z,61.65
2022-09-15T18:23:25.168Z,62.03
2022-09-15T18:25:57.136Z,62.17
2022-09-15T18:28:29.329Z,62.42
2022-09-15T18:31:01.383Z,62.55
2022-09-15T18:33:33.490Z,62.66
2022-09-15T18:36:09.397Z,62.84
2022-09-15T18:38:41.865Z,63.05
2022-09-15T18:41:13.840Z,63.10
2022-09-15T18:43:49.167Z,63.26
2022-09-15T18:46:21.286Z,63.39
2022-09-15T18:48:53.232Z,63.52
2022-09-15T18:51:40.871Z,63.59
2022-09-15T18:54:16.945Z,63.68
2022-09-15T18:56:48.950Z,63.81
2022-09-15T18:59:20.926Z,63.92
2022-09-15T19:01:52.927Z,63.94
2022-09-15T19:04:28.374Z,63.95
2022-09-15T19:07:02.974Z,64.07
2022-09-15T19:09:35.225Z,64.14
2022-09-15T19:12:07.458Z,64.19
2022-09-15T19:14:42.188Z,64.25
2022-09-15T19:17:17.335Z,64.35
2022-09-15T19:19:49.539Z,64.43
2022-09-15T19:22:21.402Z,64.43
2022-09-15T19:24:53.285Z,64.53
2022-09-15T19:27:25.387Z,64.61
2022-09-15T19:29:57.189Z,64.70
2022-09-15T19:32:29.097Z,64.80
2022-09-15T19:35:01.055Z,65.02
2022-09-15T19:37:33.442Z,65.12
2022-09-15T19:40:07.791Z,65.20
2022-09-15T19:42:43.069Z,65.33
2022-09-15T19:45:16.013Z,65.53
2022-09-15T19:47:47.999Z,65.51
2022-09-15T19:50:20.166Z,65.62
2022-09-15T19:52:54.314Z,65.64
2022-09-15T19:55:29.831Z,65.84
2022-09-15T19:58:02.432Z,65.96
2022-09-15T20:00:34.420Z,66.01
2022-09-15T20:03:06.691Z,66.06
2022-09-15T20:05:38.821Z,66.12
2022-09-15T20:08:10.920Z,66.19
2022-09-15T20:10:42.918Z,66.30
2022-09-15T20:13:16.331Z,66.46
2022-09-15T20:16:00.110Z,66.35
2022-09-15T20:18:33.554Z,66.58
2022-09-15T20:21:08.383Z,66.71
2022-09-15T20:23:40.185Z,66.61
2022-09-15T20:26:14.256Z,66.60
2022-09-15T20:28:47.644Z,66.71
2022-09-15T20:31:21.614Z,66.79
2022-09-15T20:33:54.696Z,66.84
2022-09-15T20:36:29.954Z,66.95
2022-09-15T20:39:03.348Z,66.87
2022-09-15T20:41:35.684Z,67.08
2022-09-15T20:44:09.566Z,67.08
2022-09-15T20:46:43.061Z,67.20
2022-09-15T20:49:15.859Z,67.34
2022-09-15T20:51:47.799Z,67.50
2022-09-15T20:54:19.746Z,67.55
2022-09-15T20:56:51.670Z,67.73
2022-09-15T20:59:23.537Z,68.01
2022-09-15T21:01:55.882Z,68.06
2022-09-15T21:04:28.465Z,68.17
2022-09-15T21:07:00.499Z,68.30
2022-09-15T21:09:32.420Z,68.30
2022-09-15T21:12:04.551Z,68.43
2022-09-15T21:14:36.497Z,68.53
2022-09-15T21:17:08.551Z,68.60
2022-09-15T21:19:40.378Z,68.76
2022-09-15T21:22:12.300Z,68.90
2022-09-15T21:24:44.301Z,68.96
2022-09-15T21:27:28.885Z,68.99
2022-09-15T21:30:00.840Z,69.26
2022-09-15T21:32:34.959Z,69.28
2022-09-15T21:35:10.552Z,69.44
2022-09-15T21:37:42.512Z,69.45
2022-09-15T21:40:14.481Z,69.62
2022-09-15T21:42:46.368Z,69.71
2022-09-15T21:45:19.367Z,69.79
2022-09-15T21:47:51.207Z,69.89
2022-09-15T21:50:23.181Z,69.85
2022-09-15T21:52:54.974Z,69.97
2022-09-15T21:55:26.957Z,70.05
2022-09-15T21:57:59.027Z,70.17
2022-09-15T22:00:30.900Z,70.27
2022-09-15T22:03:02.808Z,70.21
2022-09-15T22:05:34.646Z,70.38
2022-09-15T22:08:08.098Z,70.45
2022-09-15T22:10:40.517Z,70.50
2022-09-15T22:13:13.490Z,70.60
2022-09-15T22:15:45.479Z,70.71
2022-09-15T22:18:17.356Z,70.72
2022-09-15T22:20:49.185Z,70.74
2022-09-15T22:23:21.033Z,70.77
2022-09-15T22:25:53.176Z,70.79
2022-09-15T22:28:25.045Z,70.83
2022-09-15T22:31:01.449Z,71.10
2022-09-15T22:33:33.821Z,70.99
2022-09-15T22:36:07.112Z,71.01
2022-09-15T22:38:39.078Z,71.22
2022-09-15T22:41:13.128Z,71.10
2022-09-15T22:43:48.032Z,71.12
2022-09-15T22:46:20.856Z,71.03
2022-09-15T22:48:52.794Z,71.26
2022-09-15T22:51:24.673Z,71.33
2022-09-15T22:53:57.534Z,71.32
2022-09-15T22:56:29.768Z,71.32
2022-09-15T22:59:02.690Z,71.37
2022-09-15T23:01:34.558Z,71.37
2022-09-15T23:19:53.675Z,72.43
2022-09-15T23:22:25.467Z,72.55
2022-09-15T23:24:57.698Z,72.59
2022-09-15T23:27:29.539Z,72.55
2022-09-15T23:30:01.335Z,72.60
2022-09-15T23:32:33.438Z,72.65
2022-09-15T23:35:05.815Z,72.58
2022-09-15T23:37:37.631Z,72.79
2022-09-15T23:40:10.815Z,72.84
2022-09-15T23:42:42.684Z,72.92
2022-09-15T23:45:14.779Z,72.88
2022-09-15T23:47:46.668Z,73.02
2022-09-15T23:50:18.569Z,73.04
2022-09-15T23:52:50.345Z,73.01
2022-09-15T23:55:22.645Z,73.13
2022-09-15T23:57:54.961Z,73.10
